AirNav  
 
 358 users online  

OK12 Jones Farm Field Airport
Walters, Oklahoma, USA


FAA INFORMATION EFFECTIVE 09 NOVEMBER 2017

Location

FAA Identifier: OK12
Lat/Long: 34-23-57.0000N / 098-15-59.0000W
34-23.950000N / 098-15.983333W
34.3991667 / -98.2663889
(estimated)
Elevation: 1042 ft. / 318 m (estimated)
From city: 3 miles NE of WALTERS, OK
Time zone: UTC -6 (UTC -5 during Daylight Saving Time)
Zip code: 73572

Airport Operations

Airport use: Private use. Permission required prior to landing
Activation date: 03/2009
Control tower: no
ARTCC: FORT WORTH CENTER
FSS: MC ALESTER FLIGHT SERVICE STATION
Attendance: UNATNDD
Segmented circle: no
Lights: NON STD LIGHTING AVAIL UPON RQ.

Airport Communications

WX ASOS at LAW (13 nm NW): PHONE 580-581-1351
WX AWOS-3 at DUC (16 nm E): 119.075 (580-252-4547)

Nearby radio navigation aids

VOR radial/distance  VOR name  Freq  Var
LAWr120/9.3LAWTON VOR/DME109.4009E
DUCr264/17.3DUNCAN VOR/DME111.0009E
SPSr023/29.6WICHITA FALLS VORTAC112.7010E

 
NDB name  Hdg/Dist  Freq  Var  ID
POST144/14.342508EPFL .--. ..-. .-..
TRAIL155/23.938809EOFZ --- ..-. --..
SCOTLAND012/38.634405ESKB ... -.- -...

Airport Services

Runway Information

Runway 17/35

Dimensions: 2130 x 75 ft. / 649 x 23 m
Surface: turf
RUNWAY 17  RUNWAY 35
Traffic pattern: leftleft

Airport Ownership and Management from official FAA records

Ownership: Privately-owned
Owner: RONALD C. JONES
180437 N 2650 RD.
WALTERS, OK 73572
Phone 580-875-3970
Manager: RONALD C. JONES
180437 N 2650 RD.
WALTERS, OK 73572
Phone 580-875-3970

Airport Operational Statistics

Aircraft based on the field: 1
Single engine airplanes: 1
    

Additional Remarks

OWNER DESIRES ARPT NOT BE CHARTED.

Instrument Procedures

There are no published instrument procedures at OK12.

Some nearby airports with instrument procedures:

KLAW - Lawton-Fort Sill Regional Airport (13 nm NW)
KDUC - Halliburton Field Airport (16 nm E)
KFSI - Henry Post Army Airfield (Fort Sill) (16 nm NW)
KSPS - Sheppard Air Force Base/Wichita Falls Municipal Airport (27 nm SW)
F14 - Wichita Valley Airport (32 nm SW)
 
Loc | Ops | Rwys | IFR | FBO | Links
Com | Nav | Svcs | Stats | Notes


 
Aerial photo
WARNING: Photo may not be current or correct
Aerial photo of OK12 (Jones Farm Field Airport)
Photo taken 12-Jul-2017
looking north.

Do you have a better or more recent aerial photo of Jones Farm Field Airport that you would like to share? If so, please send us your photo.

 
Sectional chart

 
Airport distance calculator
Flying to Jones Farm Field Airport? Find the distance to fly.

From to OK12

Sunrise and sunset
Times for 19-Nov-2017
 Local
(UTC-6)
 Zulu
(UTC)
Morning civil twilight06:4412:44
Sunrise07:1113:11
Sunset17:2623:26
Evening civil twilight17:5323:53

Current date and time
Zulu (UTC)  19-Nov-2017 08:48:54
Local (UTC-6)  19-Nov-2017 02:48:54
 
METAR
KLAW 
12nm NW 
190753Z AUTO 33004KT 10SM CLR 01/M01 A3033 RMK AO2 SLP273 T00061006
KDUC 
15nm E 
190835Z AUTO 32006KT 10SM CLR 02/M02 A3033 RMK AO2 T00201016
KFSI 
16nm NW 
190756Z AUTO 32004KT 10SM CLR 05/M02 A3031 RMK AO2 SLP264 T00461021 $
TAF
KLAW 
12nm NW 
190520Z 1906/2006 30004KT P6SM SKC FM191700 20005KT P6SM SKC
NOTAMs
Click for the latest NOTAMs
NOTAMs are issued by the DoD/FAA and will open in a separate window not controlled by AirNav.

 

 
 

Would you like to see your business listed on this page?

 If your business provides an interesting product or service to pilots, flight crews, aircraft, or users of the Jones Farm Field Airport, you should consider listing it here.  To start the listing process, click on the button below
 
Add a business
 

Other Pages about Jones Farm Field Airport

Update a link
 
Copyright © AirNav, LLC. All rights reserved. Privacy Policy  Contact